sensor_id;sensor_type;location;lat;lon;timestamp;pressure;altitude;pressure_sealevel;temperature;humidity
57572;BME280;44459;43.522;24.470;2022-09-09T00:00:41;100161.59;;;18.86;84.26
57572;BME280;44459;43.522;24.470;2022-09-09T00:03:16;100152.00;;;18.79;84.85
57572;BME280;44459;43.522;24.470;2022-09-09T00:06:02;100159.19;;;18.77;85.33
57572;BME280;44459;43.522;24.470;2022-09-09T00:08:53;100162.81;;;18.75;85.73
57572;BME280;44459;43.522;24.470;2022-09-09T00:11:31;100151.31;;;18.71;86.17
57572;BME280;44459;43.522;24.470;2022-09-09T00:14:03;100150.47;;;18.71;86.18
57572;BME280;44459;43.522;24.470;2022-09-09T00:16:36;100155.94;;;18.66;86.42
57572;BME280;44459;43.522;24.470;2022-09-09T00:19:22;100154.25;;;18.62;87.12
57572;BME280;44459;43.522;24.470;2022-09-09T00:22:19;100157.94;;;18.58;87.19
57572;BME280;44459;43.522;24.470;2022-09-09T00:24:47;100160.66;;;18.56;87.38
57572;BME280;44459;43.522;24.470;2022-09-09T00:27:32;100155.31;;;18.56;87.39
57572;BME280;44459;43.522;24.470;2022-09-09T00:30:18;100149.09;;;18.56;87.31
57572;BME280;44459;43.522;24.470;2022-09-09T00:32:58;100151.78;;;18.56;86.89
57572;BME280;44459;43.522;24.470;2022-09-09T00:35:31;100142.91;;;18.54;87.36
57572;BME280;44459;43.522;24.470;2022-09-09T00:38:01;100142.91;;;18.54;86.86
57572;BME280;44459;43.522;24.470;2022-09-09T00:40:33;100146.50;;;18.53;87.06
57572;BME280;44459;43.522;24.470;2022-09-09T00:48:46;100121.66;;;18.48;87.09
57572;BME280;44459;43.522;24.470;2022-09-09T00:54:22;100119.09;;;18.43;87.71
57572;BME280;44459;43.522;24.470;2022-09-09T01:02:49;100111.34;;;18.34;87.45
57572;BME280;44459;43.522;24.470;2022-09-09T01:08:01;100119.47;;;18.30;87.57
57572;BME280;44459;43.522;24.470;2022-09-09T01:10:49;100115.97;;;18.28;87.96
57572;BME280;44459;43.522;24.470;2022-09-09T01:13:26;100106.19;;;18.28;87.62
57572;BME280;44459;43.522;24.470;2022-09-09T01:15:59;100118.78;;;18.23;87.52
57572;BME280;44459;43.522;24.470;2022-09-09T01:18:45;100123.31;;;18.20;87.44
57572;BME280;44459;43.522;24.470;2022-09-09T01:21:35;100124.25;;;18.19;87.66
57572;BME280;44459;43.522;24.470;2022-09-09T01:27:01;100120.78;;;18.15;88.66
57572;BME280;44459;43.522;24.470;2022-09-09T01:29:27;100120.91;;;18.10;88.83
57572;BME280;44459;43.522;24.470;2022-09-09T01:32:02;100129.09;;;18.03;88.41
57572;BME280;44459;43.522;24.470;2022-09-09T01:34:38;100123.78;;;18.01;88.55
57572;BME280;44459;43.522;24.470;2022-09-09T01:37:07;100122.06;;;18.00;88.68
57572;BME280;44459;43.522;24.470;2022-09-09T01:39:35;100118.53;;;17.98;89.02
57572;BME280;44459;43.522;24.470;2022-09-09T01:42:02;100114.16;;;17.96;89.30
57572;BME280;44459;43.522;24.470;2022-09-09T01:44:29;100105.34;;;17.92;89.16
57572;BME280;44459;43.522;24.470;2022-09-09T01:46:54;100125.66;;;17.98;89.47
57572;BME280;44459;43.522;24.470;2022-09-09T01:49:20;100120.41;;;17.95;89.57
57572;BME280;44459;43.522;24.470;2022-09-09T01:51:50;100116.94;;;17.91;89.45
57572;BME280;44459;43.522;24.470;2022-09-09T01:54:18;100118.81;;;17.88;88.85
57572;BME280;44459;43.522;24.470;2022-09-09T01:57:31;100120.63;;;17.87;88.78
57572;BME280;44459;43.522;24.470;2022-09-09T02:00:07;100124.28;;;17.83;89.35
57572;BME280;44459;43.522;24.470;2022-09-09T02:08:13;100124.50;;;17.74;89.98
57572;BME280;44459;43.522;24.470;2022-09-09T02:10:57;100129.03;;;17.71;89.91
57572;BME280;44459;43.522;24.470;2022-09-09T02:13:25;100119.38;;;17.67;89.51
57572;BME280;44459;43.522;24.470;2022-09-09T02:15:58;100118.50;;;17.66;89.56
57572;BME280;44459;43.522;24.470;2022-09-09T02:18:33;100122.94;;;17.66;89.71
57572;BME280;44459;43.522;24.470;2022-09-09T02:21:01;100119.47;;;17.62;89.63
57572;BME280;44459;43.522;24.470;2022-09-09T02:23:28;100109.75;;;17.59;89.84
57572;BME280;44459;43.522;24.470;2022-09-09T02:25:55;100114.16;;;17.60;90.06
57572;BME280;44459;43.522;24.470;2022-09-09T02:28:26;100116.97;;;17.56;90.11
57572;BME280;44459;43.522;24.470;2022-09-09T02:30:54;100116.94;;;17.54;90.39
57572;BME280;44459;43.522;24.470;2022-09-09T02:33:25;100127.63;;;17.54;90.46
57572;BME280;44459;43.522;24.470;2022-09-09T02:35:52;100127.69;;;17.51;90.45
57572;BME280;44459;43.522;24.470;2022-09-09T02:38:21;100123.38;;;17.46;91.11
57572;BME280;44459;43.522;24.470;2022-09-09T02:40:50;100122.53;;;17.45;90.84
57572;BME280;44459;43.522;24.470;2022-09-09T02:43:15;100130.53;;;17.45;91.06
57572;BME280;44459;43.522;24.470;2022-09-09T02:46:29;100135.06;;;17.40;91.36
57572;BME280;44459;43.522;24.470;2022-09-09T02:49:25;100136.03;;;17.38;91.52
57572;BME280;44459;43.522;24.470;2022-09-09T02:52:01;100128.91;;;17.38;91.47
57572;BME280;44459;43.522;24.470;2022-09-09T02:54:30;100131.66;;;17.35;91.60
57572;BME280;44459;43.522;24.470;2022-09-09T02:57:04;100121.03;;;17.32;91.41
57572;BME280;44459;43.522;24.470;2022-09-09T02:59:32;100114.84;;;17.30;91.48
57572;BME280;44459;43.522;24.470;2022-09-09T03:01:58;100114.88;;;17.29;91.72
57572;BME280;44459;43.522;24.470;2022-09-09T03:04:24;100114.16;;;17.22;91.94
57572;BME280;44459;43.522;24.470;2022-09-09T03:06:50;100116.00;;;17.20;91.69
57572;BME280;44459;43.522;24.470;2022-09-09T03:09:16;100116.13;;;17.14;91.67
57572;BME280;44459;43.522;24.470;2022-09-09T03:11:41;100125.91;;;17.14;91.99
57572;BME280;44459;43.522;24.470;2022-09-09T03:14:07;100123.31;;;17.10;91.54
57572;BME280;44459;43.522;24.470;2022-09-09T03:16:33;100114.53;;;17.05;91.83
57572;BME280;44459;43.522;24.470;2022-09-09T03:19:00;100132.16;;;17.13;91.79
57572;BME280;44459;43.522;24.470;2022-09-09T03:21:26;100134.81;;;17.13;92.46
57572;BME280;44459;43.522;24.470;2022-09-09T03:23:51;100130.38;;;17.11;93.18
57572;BME280;44459;43.522;24.470;2022-09-09T03:26:17;100126.88;;;17.11;93.19
57572;BME280;44459;43.522;24.470;2022-09-09T03:28:42;100118.00;;;17.10;92.64
57572;BME280;44459;43.522;24.470;2022-09-09T03:31:08;100126.88;;;17.11;92.56
57572;BME280;44459;43.522;24.470;2022-09-09T03:33:36;100134.00;;;17.10;92.89
57572;BME280;44459;43.522;24.470;2022-09-09T03:36:02;100133.06;;;17.11;93.09
57572;BME280;44459;43.522;24.470;2022-09-09T03:38:28;100129.53;;;17.11;93.09
57572;BME280;44459;43.522;24.470;2022-09-09T03:40:54;100141.94;;;17.14;93.32
57572;BME280;44459;43.522;24.470;2022-09-09T03:43:25;100127.72;;;17.11;93.11
57572;BME280;44459;43.522;24.470;2022-09-09T03:45:51;100126.81;;;17.13;93.26
57572;BME280;44459;43.522;24.470;2022-09-09T03:48:18;100130.34;;;17.15;93.74
57572;BME280;44459;43.522;24.470;2022-09-09T03:50:51;100134.75;;;17.16;93.69
57572;BME280;44459;43.522;24.470;2022-09-09T03:53:19;100144.53;;;17.15;93.02
57572;BME280;44459;43.522;24.470;2022-09-09T03:55:50;100140.06;;;17.17;92.05
57572;BME280;44459;43.522;24.470;2022-09-09T03:58:18;100138.22;;;17.21;nan
57572;BME280;44459;43.522;24.470;2022-09-09T04:01:11;100135.41;;;17.27;91.50
57572;BME280;44459;43.522;24.470;2022-09-09T04:03:38;100130.13;;;17.24;91.97
57572;BME280;44459;43.522;24.470;2022-09-09T04:06:05;100131.84;;;17.26;91.84
57572;BME280;44459;43.522;24.470;2022-09-09T04:08:33;100127.31;;;17.30;91.96
57572;BME280;44459;43.522;24.470;2022-09-09T04:11:01;100128.19;;;17.32;92.15
57572;BME280;44459;43.522;24.470;2022-09-09T04:13:34;100121.84;;;17.36;91.86
57572;BME280;44459;43.522;24.470;2022-09-09T04:16:02;100121.63;;;17.45;91.61
57572;BME280;44459;43.522;24.470;2022-09-09T04:18:29;100125.84;;;17.53;92.30
57572;BME280;44459;43.522;24.470;2022-09-09T04:20:55;100124.97;;;17.56;91.80
57572;BME280;44459;43.522;24.470;2022-09-09T04:23:23;100131.03;;;17.63;91.33
57572;BME280;44459;43.522;24.470;2022-09-09T04:25:53;100131.75;;;17.69;90.77
57572;BME280;44459;43.522;24.470;2022-09-09T04:28:20;100129.84;;;17.74;89.72
57572;BME280;44459;43.522;24.470;2022-09-09T04:30:47;100136.78;;;17.81;89.16
57572;BME280;44459;43.522;24.470;2022-09-09T04:33:13;100136.66;;;17.87;88.43
57572;BME280;44459;43.522;24.470;2022-09-09T04:35:39;100143.69;;;17.90;88.83
57572;BME280;44459;43.522;24.470;2022-09-09T04:38:08;100142.63;;;17.97;88.84
57572;BME280;44459;43.522;24.470;2022-09-09T04:40:34;100146.03;;;18.02;88.35
57572;BME280;44459;43.522;24.470;2022-09-09T04:43:02;100148.53;;;18.09;87.86
57572;BME280;44459;43.522;24.470;2022-09-09T04:45:30;100147.50;;;18.15;87.71
57572;BME280;44459;43.522;24.470;2022-09-09T04:47:56;100148.31;;;18.19;86.85
57572;BME280;44459;43.522;24.470;2022-09-09T04:50:21;100152.00;;;18.13;85.69
57572;BME280;44459;43.522;24.470;2022-09-09T04:52:47;100149.13;;;18.21;85.39
57572;BME280;44459;43.522;24.470;2022-09-09T04:55:13;100149.09;;;18.22;85.08
57572;BME280;44459;43.522;24.470;2022-09-09T04:57:40;100155.97;;;18.31;85.22
57572;BME280;44459;43.522;24.470;2022-09-09T05:00:06;100163.00;;;18.35;84.88
57572;BME280;44459;43.522;24.470;2022-09-09T05:02:32;100156.59;;;18.42;84.70
57572;BME280;44459;43.522;24.470;2022-09-09T05:04:58;100147.47;;;18.49;84.71
57572;BME280;44459;43.522;24.470;2022-09-09T05:07:24;100155.38;;;18.53;84.91
57572;BME280;44459;43.522;24.470;2022-09-09T05:09:51;100154.47;;;18.54;84.74
57572;BME280;44459;43.522;24.470;2022-09-09T05:12:17;100151.50;;;18.65;84.54
57572;BME280;44459;43.522;24.470;2022-09-09T05:14:43;100145.81;;;18.77;84.24
57572;BME280;44459;43.522;24.470;2022-09-09T05:17:09;100150.88;;;18.88;83.36
57572;BME280;44459;43.522;24.470;2022-09-09T05:19:34;100144.31;;;18.98;82.61
57572;BME280;44459;43.522;24.470;2022-09-09T05:22:00;100134.16;;;19.09;82.45
57572;BME280;44459;43.522;24.470;2022-09-09T05:24:26;100129.31;;;19.22;82.21
57572;BME280;44459;43.522;24.470;2022-09-09T05:26:52;100125.38;;;19.33;81.82
57572;BME280;44459;43.522;24.470;2022-09-09T05:29:17;100136.56;;;19.47;80.47
57572;BME280;44459;43.522;24.470;2022-09-09T05:31:45;100127.16;;;19.62;80.08
57572;BME280;44459;43.522;24.470;2022-09-09T05:34:11;100131.00;;;19.81;78.31
57572;BME280;44459;43.522;24.470;2022-09-09T05:36:37;100136.56;;;20.01;77.08
57572;BME280;44459;43.522;24.470;2022-09-09T05:39:02;100135.88;;;20.21;76.97
57572;BME280;44459;43.522;24.470;2022-09-09T05:41:28;100134.38;;;20.39;75.57
57572;BME280;44459;43.522;24.470;2022-09-09T05:43:54;100132.09;;;20.53;73.67
57572;BME280;44459;43.522;24.470;2022-09-09T05:46:21;100137.72;;;20.70;73.95
57572;BME280;44459;43.522;24.470;2022-09-09T05:48:48;100146.94;;;20.86;72.87
57572;BME280;44459;43.522;24.470;2022-09-09T05:51:21;100143.69;;;21.01;71.74
57572;BME280;44459;43.522;24.470;2022-09-09T05:53:48;100136.78;;;21.19;71.27
57572;BME280;44459;43.522;24.470;2022-09-09T05:56:16;100146.97;;;21.33;70.49
57572;BME280;44459;43.522;24.470;2022-09-09T05:58:43;100147.88;;;21.55;70.43
57572;BME280;44459;43.522;24.470;2022-09-09T06:01:30;100144.22;;;21.79;69.87
57572;BME280;44459;43.522;24.470;2022-09-09T06:03:55;100145.06;;;22.01;68.85
57572;BME280;44459;43.522;24.470;2022-09-09T06:06:25;100135.03;;;22.27;68.90
57572;BME280;44459;43.522;24.470;2022-09-09T06:08:53;100128.56;;;22.51;67.79
57572;BME280;44459;43.522;24.470;2022-09-09T06:11:21;100129.53;;;22.70;66.58
57572;BME280;44459;43.522;24.470;2022-09-09T06:13:48;100146.31;;;22.95;66.09
57572;BME280;44459;43.522;24.470;2022-09-09T06:16:18;100144.38;;;23.18;63.93
57572;BME280;44459;43.522;24.470;2022-09-09T06:21:35;100137.78;;;23.62;63.26
57572;BME280;44459;43.522;24.470;2022-09-09T06:24:04;100127.53;;;23.87;63.17
57572;BME280;44459;43.522;24.470;2022-09-09T06:26:35;100133.66;;;24.08;63.34
57572;BME280;44459;43.522;24.470;2022-09-09T06:29:01;100137.19;;;24.27;60.02
57572;BME280;44459;43.522;24.470;2022-09-09T06:31:30;100149.66;;;24.47;59.13
57572;BME280;44459;43.522;24.470;2022-09-09T06:33:57;100152.19;;;24.67;59.83
57572;BME280;44459;43.522;24.470;2022-09-09T06:36:34;100151.44;;;24.81;58.10
57572;BME280;44459;43.522;24.470;2022-09-09T06:39:00;100140.88;;;24.93;57.36
57572;BME280;44459;43.522;24.470;2022-09-09T06:41:28;100138.31;;;25.08;55.63
57572;BME280;44459;43.522;24.470;2022-09-09T06:43:54;100146.53;;;25.22;57.11
57572;BME280;44459;43.522;24.470;2022-09-09T06:46:27;100150.75;;;25.43;56.46
57572;BME280;44459;43.522;24.470;2022-09-09T06:48:54;100161.50;;;25.60;54.41
57572;BME280;44459;43.522;24.470;2022-09-09T06:51:30;100156.63;;;25.67;54.31
57572;BME280;44459;43.522;24.470;2022-09-09T06:53:57;100147.13;;;25.75;55.64
57572;BME280;44459;43.522;24.470;2022-09-09T06:58:59;100148.84;;;25.92;53.14
57572;BME280;44459;43.522;24.470;2022-09-09T07:01:29;100145.69;;;25.99;53.03
57572;BME280;44459;43.522;24.470;2022-09-09T07:03:56;100142.72;;;26.20;56.84
57572;BME280;44459;43.522;24.470;2022-09-09T07:06:32;100137.88;;;26.25;52.44
57572;BME280;44459;43.522;24.470;2022-09-09T07:09:09;100119.16;;;26.36;52.45
57572;BME280;44459;43.522;24.470;2022-09-09T07:11:43;100128.97;;;26.52;52.22
57572;BME280;44459;43.522;24.470;2022-09-09T07:14:09;100138.19;;;26.64;51.84
57572;BME280;44459;43.522;24.470;2022-09-09T07:16:42;100130.69;;;26.83;53.01
57572;BME280;44459;43.522;24.470;2022-09-09T07:19:07;100130.22;;;27.05;51.11
57572;BME280;44459;43.522;24.470;2022-09-09T07:21:33;100136.69;;;27.17;51.30
57572;BME280;44459;43.522;24.470;2022-09-09T07:23:59;100139.41;;;27.31;49.62
57572;BME280;44459;43.522;24.470;2022-09-09T07:26:26;100139.00;;;27.37;48.45
57572;BME280;44459;43.522;24.470;2022-09-09T07:28:52;100150.72;;;27.66;49.72
57572;BME280;44459;43.522;24.470;2022-09-09T07:31:26;100150.47;;;27.83;48.36
57572;BME280;44459;43.522;24.470;2022-09-09T07:33:51;100155.06;;;27.95;46.91
57572;BME280;44459;43.522;24.470;2022-09-09T07:36:30;100150.34;;;28.25;47.22
57572;BME280;44459;43.522;24.470;2022-09-09T07:39:05;100145.56;;;28.81;48.83
57572;BME280;44459;43.522;24.470;2022-09-09T07:41:40;100144.13;;;29.13;46.47
57572;BME280;44459;43.522;24.470;2022-09-09T07:44:08;100153.81;;;29.17;44.76
57572;BME280;44459;43.522;24.470;2022-09-09T07:46:35;100157.72;;;28.88;43.90
57572;BME280;44459;43.522;24.470;2022-09-09T07:49:00;100154.38;;;28.84;45.31
57572;BME280;44459;43.522;24.470;2022-09-09T07:51:35;100153.47;;;28.71;44.51
57572;BME280;44459;43.522;24.470;2022-09-09T07:54:04;100161.44;;;28.47;46.83
57572;BME280;44459;43.522;24.470;2022-09-09T07:56:31;100154.84;;;28.52;44.93
57572;BME280;44459;43.522;24.470;2022-09-09T07:58:58;100151.25;;;28.64;46.07
57572;BME280;44459;43.522;24.470;2022-09-09T08:01:38;100150.72;;;28.46;45.88
57572;BME280;44459;43.522;24.470;2022-09-09T08:04:09;100149.63;;;28.09;45.82
57572;BME280;44459;43.522;24.470;2022-09-09T08:06:37;100142.19;;;28.25;45.55
57572;BME280;44459;43.522;24.470;2022-09-09T08:09:04;100146.03;;;28.35;49.07
57572;BME280;44459;43.522;24.470;2022-09-09T08:11:30;100144.19;;;28.09;45.67
57572;BME280;44459;43.522;24.470;2022-09-09T08:13:56;100139.03;;;28.05;47.23
57572;BME280;44459;43.522;24.470;2022-09-09T08:16:24;100135.63;;;28.15;46.74
57572;BME280;44459;43.522;24.470;2022-09-09T08:18:51;100135.00;;;27.97;45.63
57572;BME280;44459;43.522;24.470;2022-09-09T08:21:20;100130.38;;;27.85;46.47
57572;BME280;44459;43.522;24.470;2022-09-09T08:23:47;100129.16;;;28.04;47.17
57572;BME280;44459;43.522;24.470;2022-09-09T08:26:19;100126.53;;;28.02;45.45
57572;BME280;44459;43.522;24.470;2022-09-09T08:28:53;100123.56;;;28.07;47.72
57572;BME280;44459;43.522;24.470;2022-09-09T08:31:23;100122.03;;;28.15;46.54
57572;BME280;44459;43.522;24.470;2022-09-09T08:33:49;100121.88;;;28.18;46.84
57572;BME280;44459;43.522;24.470;2022-09-09T08:36:23;100134.72;;;28.29;48.33
57572;BME280;44459;43.522;24.470;2022-09-09T08:38:50;100129.66;;;28.23;45.80
57572;BME280;44459;43.522;24.470;2022-09-09T08:49:24;100125.41;;;28.58;47.56
57572;BME280;44459;43.522;24.470;2022-09-09T08:51:56;100139.16;;;28.69;47.57
57572;BME280;44459;43.522;24.470;2022-09-09T08:54:23;100124.59;;;28.70;46.64
57572;BME280;44459;43.522;24.470;2022-09-09T08:56:52;100132.63;;;28.72;48.63
57572;BME280;44459;43.522;24.470;2022-09-09T08:59:18;100129.88;;;28.59;45.80
57572;BME280;44459;43.522;24.470;2022-09-09T09:12:30;100121.22;;;28.67;48.69
57572;BME280;44459;43.522;24.470;2022-09-09T09:14:59;100121.28;;;28.65;47.04
57572;BME280;44459;43.522;24.470;2022-09-09T09:17:27;100126.94;;;28.62;46.06
57572;BME280;44459;43.522;24.470;2022-09-09T09:19:56;100122.53;;;28.74;47.53
57572;BME280;44459;43.522;24.470;2022-09-09T09:22:39;100114.16;;;28.77;44.92
57572;BME280;44459;43.522;24.470;2022-09-09T09:25:20;100113.25;;;28.89;46.08
57572;BME280;44459;43.522;24.470;2022-09-09T09:28:11;100110.97;;;28.95;45.06
57572;BME280;44459;43.522;24.470;2022-09-09T09:30:42;100117.59;;;28.91;44.18
57572;BME280;44459;43.522;24.470;2022-09-09T09:35:57;100115.75;;;28.92;43.86
57572;BME280;44459;43.522;24.470;2022-09-09T09:38:26;100103.69;;;28.96;44.68
57572;BME280;44459;43.522;24.470;2022-09-09T09:40:58;100117.06;;;28.99;45.08
57572;BME280;44459;43.522;24.470;2022-09-09T09:43:34;100106.06;;;29.13;46.54
57572;BME280;44459;43.522;24.470;2022-09-09T09:46:03;100112.28;;;29.15;43.94
57572;BME280;44459;43.522;24.470;2022-09-09T09:48:29;100117.38;;;29.20;44.00
57572;BME280;44459;43.522;24.470;2022-09-09T09:51:15;100120.84;;;29.34;46.03
57572;BME280;44459;43.522;24.470;2022-09-09T09:53:42;100114.63;;;29.45;46.86
57572;BME280;44459;43.522;24.470;2022-09-09T09:56:09;100118.03;;;29.36;45.82
57572;BME280;44459;43.522;24.470;2022-09-09T10:01:27;100114.63;;;29.45;46.83
57572;BME280;44459;43.522;24.470;2022-09-09T10:03:57;100113.66;;;29.46;45.29
57572;BME280;44459;43.522;24.470;2022-09-09T10:06:33;100115.66;;;29.31;42.84
57572;BME280;44459;43.522;24.470;2022-09-09T10:09:01;100109.00;;;29.35;45.46
57572;BME280;44459;43.522;24.470;2022-09-09T10:14:32;100115.88;;;29.28;43.94
57572;BME280;44459;43.522;24.470;2022-09-09T10:19:37;100105.56;;;29.57;45.25
57572;BME280;44459;43.522;24.470;2022-09-09T10:32:41;100102.66;;;29.84;46.04
57572;BME280;44459;43.522;24.470;2022-09-09T10:38:13;100105.03;;;29.88;45.85
57572;BME280;44459;43.522;24.470;2022-09-09T10:46:34;100108.72;;;29.64;46.38
57572;BME280;44459;43.522;24.470;2022-09-09T10:49:13;100106.16;;;29.73;42.92
57572;BME280;44459;43.522;24.470;2022-09-09T10:51:56;100114.25;;;29.62;43.90
57572;BME280;44459;43.522;24.470;2022-09-09T10:57:02;100102.72;;;29.59;44.99
57572;BME280;44459;43.522;24.470;2022-09-09T10:59:33;100097.41;;;29.57;45.74
57572;BME280;44459;43.522;24.470;2022-09-09T11:02:17;100095.81;;;29.42;45.25
57572;BME280;44459;43.522;24.470;2022-09-09T11:07:46;100106.09;;;29.26;45.25
57572;BME280;44459;43.522;24.470;2022-09-09T11:10:18;100110.31;;;29.17;45.55
57572;BME280;44459;43.522;24.470;2022-09-09T11:12:52;100108.03;;;29.11;45.25
57572;BME280;44459;43.522;24.470;2022-09-09T11:15:26;100111.59;;;29.24;44.29
57572;BME280;44459;43.522;24.470;2022-09-09T11:17:56;100110.06;;;29.20;45.19
57572;BME280;44459;43.522;24.470;2022-09-09T11:20:25;100101.03;;;29.20;44.78
57572;BME280;44459;43.522;24.470;2022-09-09T11:23:01;100106.38;;;29.21;46.03
57572;BME280;44459;43.522;24.470;2022-09-09T11:25:36;100106.50;;;29.07;45.96
57572;BME280;44459;43.522;24.470;2022-09-09T11:28:10;100110.44;;;28.90;47.33
57572;BME280;44459;43.522;24.470;2022-09-09T11:31:21;100103.16;;;28.91;47.21
57572;BME280;44459;43.522;24.470;2022-09-09T11:39:59;100097.59;;;28.67;48.42
57572;BME280;44459;43.522;24.470;2022-09-09T11:42:29;100094.13;;;28.53;47.68
57572;BME280;44459;43.522;24.470;2022-09-09T11:44:55;100091.91;;;28.58;47.71
57572;BME280;44459;43.522;24.470;2022-09-09T11:47:28;100107.56;;;28.54;47.03
57572;BME280;44459;43.522;24.470;2022-09-09T11:52:47;100103.75;;;28.31;47.46
57572;BME280;44459;43.522;24.470;2022-09-09T11:55:28;100102.31;;;28.26;48.39
57572;BME280;44459;43.522;24.470;2022-09-09T12:03:35;100095.59;;;28.31;48.76
57572;BME280;44459;43.522;24.470;2022-09-09T12:08:42;100097.88;;;28.25;48.56
57572;BME280;44459;43.522;24.470;2022-09-09T12:11:08;100089.16;;;28.20;49.77
57572;BME280;44459;43.522;24.470;2022-09-09T12:13:33;100075.28;;;28.24;48.53
57572;BME280;44459;43.522;24.470;2022-09-09T12:16:00;100088.19;;;28.21;49.15
57572;BME280;44459;43.522;24.470;2022-09-09T12:18:35;100071.91;;;28.21;48.70
57572;BME280;44459;43.522;24.470;2022-09-09T12:21:13;100064.75;;;28.45;48.99
57572;BME280;44459;43.522;24.470;2022-09-09T12:24:01;100060.41;;;28.55;48.01
57572;BME280;44459;43.522;24.470;2022-09-09T12:26:43;100055.22;;;28.52;48.61
57572;BME280;44459;43.522;24.470;2022-09-09T12:34:47;100053.88;;;28.32;48.25
57572;BME280;44459;43.522;24.470;2022-09-09T12:39:57;100039.53;;;28.43;47.32
57572;BME280;44459;43.522;24.470;2022-09-09T12:42:25;100043.91;;;28.58;47.81
57572;BME280;44459;43.522;24.470;2022-09-09T12:45:02;100040.53;;;28.42;47.95
57572;BME280;44459;43.522;24.470;2022-09-09T12:48:01;100037.81;;;28.42;49.46
57572;BME280;44459;43.522;24.470;2022-09-09T12:50:31;100033.25;;;28.42;48.79
57572;BME280;44459;43.522;24.470;2022-09-09T12:53:07;100039.53;;;28.43;49.51
57572;BME280;44459;43.522;24.470;2022-09-09T12:55:37;100043.25;;;28.42;50.01
57572;BME280;44459;43.522;24.470;2022-09-09T12:58:05;100046.16;;;28.14;49.84
57572;BME280;44459;43.522;24.470;2022-09-09T13:00:32;100044.63;;;28.22;50.03
57572;BME280;44459;43.522;24.470;2022-09-09T13:03:14;100046.38;;;28.11;49.69
57572;BME280;44459;43.522;24.470;2022-09-09T13:05:41;100051.19;;;28.06;49.63
57572;BME280;44459;43.522;24.470;2022-09-09T13:08:12;100053.66;;;28.23;49.55
57572;BME280;44459;43.522;24.470;2022-09-09T13:10:49;100042.56;;;28.26;50.20
57572;BME280;44459;43.522;24.470;2022-09-09T13:13:23;100048.78;;;28.28;50.59
57572;BME280;44459;43.522;24.470;2022-09-09T13:15:56;100043.22;;;28.17;50.84
57572;BME280;44459;43.522;24.470;2022-09-09T13:18:24;100033.97;;;28.19;50.02
57572;BME280;44459;43.522;24.470;2022-09-09T13:20:52;100039.84;;;28.26;50.25
57572;BME280;44459;43.522;24.470;2022-09-09T13:23:19;100033.22;;;28.17;50.89
57572;BME280;44459;43.522;24.470;2022-09-09T13:25:57;100035.13;;;28.02;50.89
57572;BME280;44459;43.522;24.470;2022-09-09T13:28:25;100037.13;;;28.13;52.37
57572;BME280;44459;43.522;24.470;2022-09-09T13:31:03;100040.63;;;28.40;50.67
57572;BME280;44459;43.522;24.470;2022-09-09T13:36:09;100039.53;;;28.43;50.53
57572;BME280;44459;43.522;24.470;2022-09-09T13:38:53;100042.25;;;28.43;49.39
57572;BME280;44459;43.522;24.470;2022-09-09T13:41:21;100035.06;;;28.29;49.30
57572;BME280;44459;43.522;24.470;2022-09-09T13:43:49;100028.59;;;28.05;49.35
57572;BME280;44459;43.522;24.470;2022-09-09T13:46:35;100029.13;;;28.24;49.24
57572;BME280;44459;43.522;24.470;2022-09-09T13:51:39;100020.69;;;28.02;49.60
57572;BME280;44459;43.522;24.470;2022-09-09T13:54:05;100019.72;;;28.03;48.86
57572;BME280;44459;43.522;24.470;2022-09-09T13:56:35;100018.22;;;28.12;49.58
57572;BME280;44459;43.522;24.470;2022-09-09T13:59:01;100017.41;;;28.49;50.12
57572;BME280;44459;43.522;24.470;2022-09-09T14:01:27;100021.72;;;28.64;49.98
57572;BME280;44459;43.522;24.470;2022-09-09T14:03:53;100019.59;;;28.69;48.11
57572;BME280;44459;43.522;24.470;2022-09-09T14:06:19;100015.53;;;28.75;48.30
57572;BME280;44459;43.522;24.470;2022-09-09T14:08:47;100016.28;;;28.64;47.10
57572;BME280;44459;43.522;24.470;2022-09-09T14:11:13;100015.66;;;28.48;48.07
57572;BME280;44459;43.522;24.470;2022-09-09T14:13:38;100012.25;;;28.57;46.52
57572;BME280;44459;43.522;24.470;2022-09-09T14:16:04;100011.09;;;28.48;48.26
57572;BME280;44459;43.522;24.470;2022-09-09T14:18:30;100013.78;;;28.36;46.68
57572;BME280;44459;43.522;24.470;2022-09-09T14:20:55;100015.31;;;28.15;48.61
57572;BME280;44459;43.522;24.470;2022-09-09T14:23:24;100021.47;;;28.04;48.67
57572;BME280;44459;43.522;24.470;2022-09-09T14:25:51;100019.59;;;28.05;48.50
57572;BME280;44459;43.522;24.470;2022-09-09T14:28:17;100016.25;;;28.01;49.14
57572;BME280;44459;43.522;24.470;2022-09-09T14:30:43;100014.06;;;27.93;49.22
57572;BME280;44459;43.522;24.470;2022-09-09T14:33:12;100018.09;;;28.00;50.23
57572;BME280;44459;43.522;24.470;2022-09-09T14:35:38;100020.00;;;27.86;49.11
57572;BME280;44459;43.522;24.470;2022-09-09T14:38:04;100030.28;;;27.81;49.87
57572;BME280;44459;43.522;24.470;2022-09-09T14:40:30;100030.06;;;27.71;49.81
57572;BME280;44459;43.522;24.470;2022-09-09T14:42:56;100033.19;;;27.65;49.28
57572;BME280;44459;43.522;24.470;2022-09-09T14:45:23;100030.91;;;27.59;48.93
57572;BME280;44459;43.522;24.470;2022-09-09T14:47:50;100026.19;;;27.48;49.08
57572;BME280;44459;43.522;24.470;2022-09-09T14:50:16;100021.03;;;27.44;50.13
57572;BME280;44459;43.522;24.470;2022-09-09T14:52:41;100033.25;;;27.37;50.37
57572;BME280;44459;43.522;24.470;2022-09-09T14:55:07;100030.94;;;27.31;50.59